Time;durP1;ratioP1;P1;durP2;ratioP2;P2;SDS_P1;SDS_P2;PMS_P1;PMS_P2;Temp;Humidity;BMP_temperature;BMP_pressure;BME280_temperature;BME280_humidity;BME280_pressure;Samples;Min_cycle;Max_cycle;Signal;HPM_P1;HPM_P2
2021/05/31 00:00:30;;;;;;;3.70;3.30;;;;;;;9.26;100.00;99804.56;10456468;28;20225;-74
2021/05/31 00:05:49;;;;;;;5.40;2.90;;;;;;;9.13;100.00;99805.97;10454966;28;20184;-74
2021/05/31 00:11:08;;;;;;;3.43;2.20;;;;;;;9.12;100.00;99801.66;10455805;28;20210;-74
2021/05/31 00:16:29;;;;;;;2.30;1.83;;;;;;;8.92;100.00;99802.16;10456061;28;20180;-75
2021/05/31 00:21:48;;;;;;;1.80;1.67;;;;;;;8.81;100.00;99791.00;10453901;28;20179;-75
2021/05/31 00:27:07;;;;;;;2.33;2.13;;;;;;;8.60;100.00;99783.63;10454221;28;20223;-75
2021/05/31 00:32:27;;;;;;;2.57;2.03;;;;;;;8.46;100.00;99789.69;10455514;28;20265;-75
2021/05/31 00:37:47;;;;;;;2.57;2.20;;;;;;;8.41;100.00;99786.47;10453508;28;20265;-75
2021/05/31 00:43:06;;;;;;;2.83;2.13;;;;;;;8.38;100.00;99787.22;10455592;28;20265;-74
2021/05/31 00:48:25;;;;;;;4.83;2.00;;;;;;;8.30;100.00;99780.81;10453992;28;20203;-74
2021/05/31 00:53:44;;;;;;;3.50;2.60;;;;;;;8.19;100.00;99777.13;10454109;28;20217;-75
2021/05/31 00:59:03;;;;;;;1.50;1.40;;;;;;;8.17;100.00;99778.63;10455141;28;20634;-75
2021/05/31 01:04:23;;;;;;;2.03;1.67;;;;;;;8.27;100.00;99776.09;10454797;28;20175;-75
2021/05/31 01:09:57;;;;;;;2.37;1.83;;;;;;;8.02;100.00;99769.38;10452631;28;20199;-75
2021/05/31 01:15:20;;;;;;;1.50;1.10;;;;;;;7.93;100.00;99774.31;10453990;28;20180;-75
2021/05/31 01:20:52;;;;;;;2.60;1.93;;;;;;;7.86;100.00;99765.16;10453507;28;20175;-74
2021/05/31 01:26:17;;;;;;;4.83;2.50;;;;;;;7.81;100.00;99765.47;10454450;28;20662;-73
2021/05/31 01:31:45;;;;;;;6.67;3.03;;;;;;;7.85;100.00;99763.56;10452605;28;20318;-75
2021/05/31 01:37:20;;;;;;;5.23;2.10;;;;;;;7.90;100.00;99768.75;10457314;28;20532;-73
2021/05/31 01:42:40;;;;;;;5.20;1.53;;;;;;;7.78;100.00;99768.91;10461206;28;20175;-74
2021/05/31 01:47:59;;;;;;;2.90;2.17;;;;;;;7.52;100.00;99766.09;10460535;28;20202;-75
2021/05/31 01:53:18;;;;;;;6.07;2.33;;;;;;;7.51;100.00;99760.97;10459227;28;20167;-74
2021/05/31 01:58:39;;;;;;;2.30;1.80;;;;;;;7.47;100.00;99760.13;10460847;28;20258;-74
2021/05/31 02:03:59;;;;;;;1.20;1.10;;;;;;;7.27;100.00;99758.56;10461151;28;20187;-75
2021/05/31 02:09:23;;;;;;;2.47;2.27;;;;;;;7.18;100.00;99758.78;10458202;28;20211;-73
2021/05/31 02:14:58;;;;;;;2.50;1.53;;;;;;;7.05;100.00;99756.56;10460693;28;20183;-74
2021/05/31 02:20:18;;;;;;;3.10;2.40;;;;;;;7.05;100.00;99753.81;10459290;28;20626;-74
2021/05/31 02:25:38;;;;;;;2.50;1.90;;;;;;;6.88;100.00;99751.50;10459058;28;20270;-74
2021/05/31 02:30:59;;;;;;;1.37;1.27;;;;;;;6.88;100.00;99754.22;10459271;28;20265;-75
2021/05/31 02:36:18;;;;;;;2.17;1.60;;;;;;;6.72;100.00;99742.56;10457541;28;20168;-73
2021/05/31 02:41:37;;;;;;;2.83;1.40;;;;;;;6.80;100.00;99760.72;10459634;28;20195;-74
2021/05/31 02:46:56;;;;;;;3.90;1.70;;;;;;;6.76;100.00;99753.56;10458284;28;20195;-73
2021/05/31 02:52:15;;;;;;;7.23;1.90;;;;;;;6.78;100.00;99764.97;10457724;28;20195;-75
2021/05/31 02:57:34;;;;;;;1.10;1.00;;;;;;;6.62;100.00;99764.97;10457676;28;20191;-76
2021/05/31 03:02:54;;;;;;;3.20;1.57;;;;;;;6.56;100.00;99750.03;10457797;28;20179;-75
2021/05/31 03:08:13;;;;;;;2.20;1.70;;;;;;;6.59;100.00;99743.03;10456482;28;20215;-74
2021/05/31 03:13:32;;;;;;;2.70;1.30;;;;;;;6.48;100.00;99748.28;10457234;28;20172;-75
2021/05/31 03:18:51;;;;;;;2.90;2.37;;;;;;;6.40;100.00;99754.72;10457149;28;20250;-73
2021/05/31 03:24:10;;;;;;;3.10;1.23;;;;;;;6.37;100.00;99755.44;10455620;28;20191;-76
2021/05/31 03:29:30;;;;;;;3.10;1.60;;;;;;;6.22;100.00;99754.66;10457401;28;20235;-76
2021/05/31 03:34:49;;;;;;;2.30;1.30;;;;;;;6.15;100.00;99762.69;10455136;28;20175;-75
2021/05/31 03:40:10;;;;;;;2.20;1.93;;;;;;;6.16;100.00;99764.28;10456602;28;20191;-77
2021/05/31 03:45:29;;;;;;;2.97;2.10;;;;;;;6.14;100.00;99744.72;10457352;28;20188;-74
2021/05/31 03:50:48;;;;;;;1.23;1.13;;;;;;;6.19;100.00;99747.97;10455474;28;20709;-74
2021/05/31 03:56:08;;;;;;;3.10;1.17;;;;;;;6.23;100.00;99746.09;10456090;28;20183;-76
2021/05/31 04:01:27;;;;;;;2.27;1.30;;;;;;;6.26;100.00;99750.88;10456217;28;20575;-75
2021/05/31 04:12:05;;;;;;;1.20;1.00;;;;;;;6.48;100.00;99756.47;10455852;28;20211;-76
2021/05/31 04:17:24;;;;;;;1.70;1.47;;;;;;;6.60;100.00;99755.56;10455180;28;20262;-74
2021/05/31 04:22:43;;;;;;;1.00;0.83;;;;;;;6.54;100.00;99754.25;10454564;28;20684;-76
2021/05/31 04:28:02;;;;;;;2.10;1.20;;;;;;;6.69;100.00;99753.44;10454805;28;20740;-76
2021/05/31 04:33:22;;;;;;;2.17;1.57;;;;;;;6.75;100.00;99757.44;10454970;28;20175;-78
2021/05/31 04:38:40;;;;;;;2.93;1.57;;;;;;;6.95;100.00;99745.38;10454534;28;20179;-75
2021/05/31 04:43:59;;;;;;;2.40;2.20;;;;;;;7.23;100.00;99761.22;10455633;28;20526;-75
2021/05/31 04:49:18;;;;;;;4.00;2.27;;;;;;;7.41;100.00;99753.34;10455073;28;20574;-74
2021/05/31 04:54:37;;;;;;;4.70;2.53;;;;;;;7.65;100.00;99780.41;10452629;28;20179;-74
2021/05/31 04:59:57;;;;;;;2.73;2.53;;;;;;;7.99;100.00;99769.31;10453881;28;20175;-74
2021/05/31 05:05:16;;;;;;;6.70;4.50;;;;;;;8.35;100.00;99777.78;10441542;28;20188;-75
2021/05/31 05:10:35;;;;;;;4.77;3.00;;;;;;;8.72;100.00;99771.28;10413508;28;20203;-74
2021/05/31 05:15:54;;;;;;;2.10;1.90;;;;;;;9.05;100.00;99767.81;10420979;28;20176;-77
2021/05/31 05:21:16;;;;;;;6.80;4.20;;;;;;;9.40;100.00;99774.53;10420352;28;20200;-77
2021/05/31 05:26:35;;;;;;;1.67;1.57;;;;;;;9.83;100.00;99774.63;10420631;28;20184;-76
2021/05/31 05:31:54;;;;;;;1.73;1.57;;;;;;;10.22;100.00;99764.78;10420692;28;20224;-76
2021/05/31 05:37:17;;;;;;;3.53;2.97;;;;;;;10.48;100.00;99764.63;10440280;28;20179;-77
2021/05/31 05:43:04;;;;;;;2.07;1.27;;;;;;;10.80;100.00;99766.41;10439436;28;20642;-75
2021/05/31 05:48:15;;;;;;;2.87;2.67;;;;;;;11.19;100.00;99765.44;10419760;28;20631;-73
2021/05/31 05:53:41;;;;;;;2.90;1.87;;;;;;;11.58;100.00;99765.63;10418231;28;20172;-73
2021/05/31 05:59:01;;;;;;;2.83;2.20;;;;;;;12.06;100.00;99767.72;10419072;28;20168;-74
2021/05/31 06:04:20;;;;;;;1.47;1.30;;;;;;;12.43;100.00;99777.19;10419787;28;20176;-76
2021/05/31 06:09:39;;;;;;;2.30;2.07;;;;;;;12.73;100.00;99772.03;10429426;28;20290;-75
2021/05/31 06:14:58;;;;;;;5.07;2.10;;;;;;;13.18;100.00;99768.38;10430091;28;20192;-74
2021/05/31 06:20:18;;;;;;;2.53;1.60;;;;;;;13.71;96.19;99769.72;10417780;28;20562;-76
2021/05/31 06:25:38;;;;;;;2.47;2.27;;;;;;;14.16;85.14;99768.69;10418529;28;20184;-74
2021/05/31 06:30:57;;;;;;;2.77;1.70;;;;;;;14.59;81.57;99765.94;10418038;28;20248;-74
2021/05/31 06:36:16;;;;;;;3.37;1.93;;;;;;;14.96;80.80;99765.19;10417527;28;20176;-74
2021/05/31 06:41:35;;;;;;;1.93;1.67;;;;;;;15.36;68.14;99759.63;10421283;28;20176;-75
2021/05/31 06:46:54;;;;;;;2.27;1.80;;;;;;;15.92;64.87;99754.09;10456704;28;20270;-75
2021/05/31 06:52:13;;;;;;;7.87;1.83;;;;;;;16.32;59.86;99744.78;10458179;28;20187;-75
2021/05/31 06:57:33;;;;;;;2.83;2.43;;;;;;;16.42;64.84;99743.81;10459359;28;20176;-73
2021/05/31 07:02:52;;;;;;;2.13;1.40;;;;;;;16.94;59.55;99746.47;10444471;28;20184;-74
2021/05/31 07:08:11;;;;;;;2.50;1.80;;;;;;;17.30;55.72;99730.66;10416422;28;20559;-76
2021/05/31 07:13:30;;;;;;;7.60;1.63;;;;;;;17.69;55.20;99738.97;10417356;28;20255;-74
2021/05/31 07:18:49;;;;;;;1.20;1.10;;;;;;;17.98;56.17;99740.69;10423329;28;20188;-75
2021/05/31 07:24:10;;;;;;;2.73;2.10;;;;;;;18.38;53.10;99742.13;10417201;28;20188;-74
2021/05/31 07:29:29;;;;;;;3.00;2.00;;;;;;;18.85;49.49;99732.97;10416147;28;20311;-75
2021/05/31 07:34:48;;;;;;;2.00;1.70;;;;;;;18.92;49.71;99732.75;10414738;28;20180;-76
2021/05/31 07:40:10;;;;;;;2.13;1.70;;;;;;;19.47;48.87;99732.44;10416364;28;20212;-75
2021/05/31 07:45:30;;;;;;;4.70;2.30;;;;;;;19.65;46.38;99729.91;10416084;28;20172;-75
2021/05/31 07:50:50;;;;;;;2.37;1.70;;;;;;;20.03;45.80;99723.16;10413257;28;20204;-75
2021/05/31 07:56:10;;;;;;;1.70;1.40;;;;;;;20.58;45.47;99723.31;10415617;28;20526;-75
2021/05/31 08:01:29;;;;;;;2.63;1.80;;;;;;;20.56;43.31;99723.00;10415395;28;20172;-75
2021/05/31 08:06:48;;;;;;;2.53;2.33;;;;;;;21.12;40.29;99710.63;10414149;28;20180;-75
2021/05/31 08:12:08;;;;;;;3.37;2.30;;;;;;;21.44;39.81;99710.25;10413593;28;20239;-75
2021/05/31 08:17:27;;;;;;;2.67;2.40;;;;;;;20.65;42.69;99711.09;10414980;28;20183;-75
2021/05/31 08:22:47;;;;;;;1.40;1.30;;;;;;;21.28;41.90;99695.66;10413600;28;20211;-74
2021/05/31 08:28:07;;;;;;;2.83;2.07;;;;;;;21.50;39.32;99697.22;10414536;28;20904;-75
2021/05/31 08:33:27;;;;;;;2.20;2.10;;;;;;;21.81;38.57;99701.59;10414729;28;20187;-75
2021/05/31 08:38:46;;;;;;;2.43;2.10;;;;;;;22.47;37.47;99692.53;10413358;28;20179;-75
2021/05/31 08:44:06;;;;;;;1.73;1.63;;;;;;;22.90;36.34;99692.25;10424600;28;20269;-76
2021/05/31 08:49:25;;;;;;;1.87;1.73;;;;;;;22.88;35.72;99701.16;10463730;28;20249;-75
2021/05/31 08:54:47;;;;;;;5.10;1.53;;;;;;;23.07;33.94;99687.94;10461890;28;20171;-75
2021/05/31 09:00:09;;;;;;;3.17;2.00;;;;;;;23.49;33.25;99692.38;10462890;28;20270;-78
2021/05/31 09:05:39;;;;;;;3.93;1.70;;;;;;;23.80;34.29;99682.50;10461579;28;20179;-77
2021/05/31 09:11:02;;;;;;;2.37;2.17;;;;;;;23.79;32.83;99680.94;10461844;28;20681;-78
2021/05/31 09:16:27;;;;;;;3.80;2.37;;;;;;;24.09;33.22;99677.06;10462156;28;20167;-76
2021/05/31 09:21:47;;;;;;;1.70;1.60;;;;;;;24.61;33.47;99677.25;10460882;28;20211;-77
2021/05/31 09:27:07;;;;;;;2.10;1.63;;;;;;;25.03;31.41;99664.59;10461506;28;20210;-78
2021/05/31 09:32:27;;;;;;;2.77;1.90;;;;;;;24.69;30.96;99669.25;10461648;28;20183;-76
2021/05/31 09:37:48;;;;;;;1.60;1.50;;;;;;;24.61;29.50;99659.59;10447227;28;20188;-77
2021/05/31 09:43:07;;;;;;;1.73;1.63;;;;;;;24.51;30.92;99658.91;10419882;28;20639;-77
2021/05/31 09:48:32;;;;;;;1.70;1.50;;;;;;;24.28;31.44;99648.38;10452094;28;20211;-76
2021/05/31 09:53:54;;;;;;;2.00;1.70;;;;;;;24.39;29.40;99654.25;10460557;28;20187;-78
2021/05/31 09:59:18;;;;;;;2.60;1.40;;;;;;;25.16;29.50;99647.44;10459225;28;20175;-76
2021/05/31 10:04:49;;;;;;;2.30;1.53;;;;;;;25.39;29.08;99638.91;10420030;28;20184;-76
2021/05/31 10:10:09;;;;;;;3.53;1.60;;;;;;;25.97;29.00;99650.16;10418517;28;20208;-76
2021/05/31 10:15:31;;;;;;;1.70;1.50;;;;;;;25.89;26.16;99634.91;10430315;28;20195;-76
2021/05/31 10:20:51;;;;;;;1.20;1.00;;;;;;;26.05;26.62;99628.72;10459451;28;20199;-75
2021/05/31 10:26:12;;;;;;;1.53;1.17;;;;;;;26.19;26.20;99623.03;10460671;28;20172;-74
2021/05/31 10:31:44;;;;;;;1.73;1.63;;;;;;;26.02;27.55;99618.41;10442071;28;20236;-75
2021/05/31 10:37:04;;;;;;;1.60;1.20;;;;;;;26.92;26.54;99624.25;10416694;28;20172;-75
2021/05/31 10:42:23;;;;;;;1.97;1.50;;;;;;;26.98;25.42;99622.25;10418589;28;20184;-74
2021/05/31 10:47:54;;;;;;;1.50;1.40;;;;;;;27.37;26.64;99626.31;10417399;28;20211;-75
2021/05/31 10:53:19;;;;;;;1.23;1.13;;;;;;;27.21;25.97;99628.97;10416943;28;20177;-76
2021/05/31 10:58:46;;;;;;;2.07;1.63;;;;;;;27.67;25.47;99616.31;10417842;28;20180;-76
2021/05/31 11:04:21;;;;;;;1.87;1.63;;;;;;;26.78;26.33;99613.03;10417822;28;20565;-77
2021/05/31 11:09:51;;;;;;;1.93;1.60;;;;;;;28.27;27.03;99611.09;10414948;28;20212;-76
2021/05/31 11:15:12;;;;;;;1.73;1.60;;;;;;;27.72;25.68;99618.41;10417331;28;20703;-75
2021/05/31 11:20:33;;;;;;;2.87;1.67;;;;;;;28.01;24.71;99615.28;10415981;28;20188;-76
2021/05/31 11:25:51;;;;;;;1.30;1.20;;;;;;;27.56;24.99;99604.88;10415299;28;20188;-77
2021/05/31 11:31:10;;;;;;;1.50;1.30;;;;;;;28.35;26.27;99589.53;10415196;28;20228;-75
2021/05/31 11:36:42;;;;;;;2.13;1.77;;;;;;;28.53;25.28;99603.25;10442348;28;20259;-75
2021/05/31 11:42:03;;;;;;;1.90;1.57;;;;;;;29.40;24.47;99591.44;10437461;28;20188;-75
2021/05/31 11:47:25;;;;;;;1.77;1.67;;;;;;;29.13;24.73;99589.28;10432272;28;20188;-75
2021/05/31 11:52:44;;;;;;;1.50;1.20;;;;;;;28.25;25.16;99581.75;10430663;28;20241;-76
2021/05/31 11:58:03;;;;;;;2.63;1.90;;;;;;;29.00;25.62;99574.06;10425716;28;20188;-76
2021/05/31 12:03:23;;;;;;;4.20;2.23;;;;;;;29.09;26.18;99585.16;10438229;28;20191;-76
2021/05/31 12:08:42;;;;;;;1.53;1.43;;;;;;;29.18;25.37;99565.84;10429696;28;20234;-75
2021/05/31 12:14:02;;;;;;;1.97;1.83;;;;;;;28.71;25.85;99575.25;10427486;28;20168;-75
2021/05/31 12:19:21;;;;;;;1.73;1.63;;;;;;;29.27;24.77;99563.56;10430350;28;20195;-76
2021/05/31 12:24:45;;;;;;;2.30;1.43;;;;;;;29.68;23.00;99564.59;10429331;28;20566;-76
2021/05/31 12:30:09;;;;;;;2.20;1.50;;;;;;;29.45;24.59;99554.53;10434040;28;20230;-75
2021/05/31 12:35:47;;;;;;;1.50;1.40;;;;;;;29.52;24.06;99556.09;10551225;27;21452;-76
2021/05/31 12:41:07;;;;;;;5.97;1.53;;;;;;;29.39;22.58;99555.84;10547123;28;20182;-76
2021/05/31 12:46:26;;;;;;;1.53;1.43;;;;;;;29.91;23.51;99553.97;10539054;28;20186;-75
2021/05/31 12:51:53;;;;;;;1.77;1.67;;;;;;;30.05;22.55;99548.81;10529032;28;20280;-74
2021/05/31 12:57:18;;;;;;;1.70;1.60;;;;;;;30.80;22.86;99543.38;10566070;28;20185;-74
2021/05/31 13:02:43;;;;;;;1.57;1.47;;;;;;;31.20;22.22;99530.44;10568332;28;20268;-75
2021/05/31 13:08:13;;;;;;;1.30;1.20;;;;;;;30.57;22.35;99529.78;10552611;28;20177;-76
2021/05/31 13:13:38;;;;;;;2.20;1.67;;;;;;;31.12;23.13;99526.63;10549003;28;20613;-75
2021/05/31 13:19:00;;;;;;;4.90;2.20;;;;;;;30.19;22.64;99522.19;10542178;28;20242;-75
2021/05/31 13:24:24;;;;;;;1.90;1.80;;;;;;;30.49;21.58;99519.53;10530699;28;20241;-75
2021/05/31 13:30:12;;;;;;;1.40;1.23;;;;;;;31.22;21.85;99511.53;10531800;28;20648;-76
2021/05/31 13:35:32;;;;;;;1.20;1.10;;;;;;;31.10;21.93;99509.31;10528339;28;20702;-77
2021/05/31 13:40:52;;;;;;;1.60;1.50;;;;;;;29.96;23.20;99508.59;10530490;28;20178;-76
2021/05/31 13:46:14;;;;;;;1.27;1.17;;;;;;;30.72;22.56;99504.66;10508141;28;20218;-76
2021/05/31 13:51:38;;;;;;;1.47;1.30;;;;;;;30.49;21.78;99494.72;10501690;28;20579;-76
2021/05/31 13:56:57;;;;;;;1.50;1.30;;;;;;;30.58;21.79;99491.56;10501797;28;20266;-76
2021/05/31 14:02:17;;;;;;;2.50;1.80;;;;;;;30.83;20.19;99479.03;10502534;28;20206;-75
2021/05/31 14:07:37;;;;;;;1.60;1.43;;;;;;;30.33;23.30;99480.59;10501273;28;20641;-74
2021/05/31 14:12:59;;;;;;;1.97;1.77;;;;;;;31.22;21.17;99462.44;10501939;28;20206;-77
2021/05/31 14:18:18;;;;;;;1.53;1.43;;;;;;;30.81;20.39;99465.31;10502072;28;20191;-75
2021/05/31 14:23:37;;;;;;;1.37;1.27;;;;;;;30.76;21.57;99471.06;10500655;28;20187;-77
2021/05/31 14:28:55;;;;;;;1.33;1.20;;;;;;;30.59;21.01;99464.72;10501717;28;20261;-75
2021/05/31 14:34:14;;;;;;;1.70;1.60;;;;;;;29.36;23.09;99458.41;10499896;28;20234;-74
2021/05/31 14:39:35;;;;;;;1.40;1.27;;;;;;;29.81;21.21;99456.25;10499185;28;20175;-75
2021/05/31 14:44:54;;;;;;;2.10;1.90;;;;;;;30.00;22.27;99452.34;10501020;28;20254;-75
2021/05/31 14:50:13;;;;;;;1.57;1.47;;;;;;;30.29;21.99;99446.78;10499505;28;20175;-75
2021/05/31 14:55:32;;;;;;;1.27;1.10;;;;;;;30.27;20.43;99442.91;10498964;28;20206;-76
2021/05/31 15:00:51;;;;;;;2.37;1.80;;;;;;;30.55;21.73;99441.50;10500248;28;20530;-74
2021/05/31 15:06:10;;;;;;;1.73;1.63;;;;;;;30.59;21.06;99436.31;10499092;28;20183;-75
2021/05/31 15:11:29;;;;;;;2.00;1.30;;;;;;;31.10;21.19;99441.88;10499706;28;20202;-76
2021/05/31 15:16:48;;;;;;;5.63;1.40;;;;;;;30.70;21.60;99427.69;10498646;28;20199;-75
2021/05/31 15:22:16;;;;;;;1.90;1.70;;;;;;;30.99;21.46;99432.66;10498237;28;20171;-75
2021/05/31 15:27:35;;;;;;;1.93;1.83;;;;;;;30.59;23.52;99424.16;10498222;28;20163;-76
2021/05/31 15:32:54;;;;;;;1.50;1.10;;;;;;;30.13;21.06;99421.31;10498613;28;20590;-76
2021/05/31 15:38:13;;;;;;;1.50;1.40;;;;;;;28.99;21.93;99411.81;10496469;28;20174;-74
2021/05/31 15:43:33;;;;;;;1.63;1.53;;;;;;;28.93;22.09;99411.00;10498662;28;20203;-75
2021/05/31 15:48:52;;;;;;;1.60;1.50;;;;;;;28.64;22.59;99399.38;10497495;28;20210;-75
2021/05/31 15:54:11;;;;;;;1.70;1.57;;;;;;;28.85;23.03;99398.66;10495708;28;20214;-74
2021/05/31 15:59:30;;;;;;;2.47;1.50;;;;;;;29.42;22.46;99402.50;10498086;28;20529;-76
2021/05/31 16:04:52;;;;;;;3.03;2.30;;;;;;;29.24;21.80;99388.06;10497603;28;20637;-74
2021/05/31 16:10:12;;;;;;;13.90;8.23;;;;;;;29.83;21.73;99380.69;10497521;28;20189;-76
2021/05/31 16:15:31;;;;;;;1.50;1.30;;;;;;;29.32;22.40;99389.09;10497288;28;20202;-76
2021/05/31 16:20:51;;;;;;;2.60;1.63;;;;;;;29.35;23.02;99385.19;10496350;28;20657;-77
2021/05/31 16:26:10;;;;;;;1.47;1.20;;;;;;;28.72;23.74;99386.25;10497480;28;20182;-75
2021/05/31 16:31:29;;;;;;;4.50;2.77;;;;;;;28.81;23.25;99381.16;10497196;28;20230;-76
2021/05/31 16:36:48;;;;;;;2.87;1.87;;;;;;;28.77;23.38;99385.50;10495068;28;20625;-75
2021/05/31 16:42:07;;;;;;;1.60;1.07;;;;;;;28.91;23.31;99381.66;10497261;28;20186;-75
2021/05/31 16:47:26;;;;;;;3.00;1.47;;;;;;;28.07;22.50;99378.44;10495905;28;20182;-76
2021/05/31 16:52:45;;;;;;;2.10;1.90;;;;;;;28.38;23.75;99379.81;10495331;28;20206;-75
2021/05/31 16:58:04;;;;;;;1.80;1.47;;;;;;;28.44;22.99;99368.50;10495727;28;20250;-76
2021/05/31 17:03:23;;;;;;;1.33;1.23;;;;;;;29.30;22.46;99360.50;10495827;28;20259;-76
2021/05/31 17:08:42;;;;;;;1.33;1.23;;;;;;;29.40;22.95;99361.78;10494416;28;20210;-75
2021/05/31 17:19:39;;;;;;;1.23;1.10;;;;;;;30.43;21.79;99354.03;10498995;28;20195;-75
2021/05/31 17:24:58;;;;;;;2.80;1.53;;;;;;;30.16;21.40;99352.94;10504108;28;20264;-76
2021/05/31 17:30:26;;;;;;;1.40;1.23;;;;;;;30.22;22.12;99350.81;10503983;28;20202;-75
2021/05/31 17:35:45;;;;;;;1.50;1.40;;;;;;;29.97;21.39;99359.00;10501975;28;20665;-74
2021/05/31 17:41:04;;;;;;;1.67;1.57;;;;;;;28.85;23.25;99359.00;10503699;28;20257;-75
2021/05/31 17:46:23;;;;;;;1.80;1.57;;;;;;;26.56;25.67;99361.59;10502479;28;20174;-75
2021/05/31 17:51:42;;;;;;;1.57;1.47;;;;;;;24.79;28.39;99352.69;10501463;28;20657;-74
2021/05/31 17:57:01;;;;;;;1.73;1.57;;;;;;;23.78;31.05;99356.25;10502128;28;20536;-74
2021/05/31 18:02:25;;;;;;;1.60;1.47;;;;;;;22.98;31.37;99359.56;10502704;28;20183;-75
2021/05/31 18:07:44;;;;;;;1.90;1.80;;;;;;;22.70;32.19;99363.72;10501348;28;20183;-74
2021/05/31 18:13:03;;;;;;;1.40;1.20;;;;;;;22.13;33.23;99358.44;10501996;28;20206;-74
2021/05/31 18:18:22;;;;;;;1.70;1.37;;;;;;;21.88;33.54;99350.38;10502152;28;20191;-74
2021/05/31 18:23:41;;;;;;;2.50;1.50;;;;;;;21.77;34.26;99348.03;10500681;28;20179;-74
2021/05/31 18:29:00;;;;;;;3.33;1.93;;;;;;;21.53;35.03;99351.13;10500612;28;20198;-74
2021/05/31 18:34:26;;;;;;;1.50;1.30;;;;;;;21.33;35.71;99345.19;10501040;28;20222;-73
2021/05/31 18:39:45;;;;;;;3.90;1.60;;;;;;;21.14;36.10;99344.38;10499987;28;20580;-73
2021/05/31 18:45:08;;;;;;;1.90;1.60;;;;;;;20.93;36.72;99350.09;10501189;28;20171;-73
2021/05/31 18:50:27;;;;;;;1.40;1.20;;;;;;;20.76;36.97;99340.41;10499867;28;20206;-73
2021/05/31 18:55:46;;;;;;;2.13;1.47;;;;;;;20.67;38.71;99354.34;10499223;28;20237;-75
2021/05/31 19:01:05;;;;;;;2.07;1.60;;;;;;;20.28;41.80;99355.06;10499126;28;20179;-76
2021/05/31 19:06:25;;;;;;;1.50;1.40;;;;;;;19.95;42.55;99346.81;10498046;28;20178;-75
2021/05/31 19:11:44;;;;;;;1.87;1.40;;;;;;;19.38;44.55;99359.19;10499771;28;20202;-75
2021/05/31 19:17:04;;;;;;;1.77;1.53;;;;;;;19.20;45.84;99354.66;10499699;28;20202;-77
2021/05/31 19:22:22;;;;;;;1.83;1.50;;;;;;;18.73;47.18;99357.38;10497257;28;20179;-74
2021/05/31 19:27:42;;;;;;;2.03;1.60;;;;;;;18.50;47.77;99354.16;10499319;28;20210;-76
2021/05/31 19:33:01;;;;;;;2.60;1.87;;;;;;;18.15;48.53;99366.31;10498701;28;20234;-76
2021/05/31 19:38:21;;;;;;;1.40;1.30;;;;;;;17.78;49.29;99375.38;10497601;28;20845;-76
2021/05/31 19:43:40;;;;;;;4.47;1.57;;;;;;;17.58;52.25;99383.06;10498306;28;20596;-75
2021/05/31 19:48:59;;;;;;;2.27;2.07;;;;;;;17.39;53.09;99388.75;10498430;28;20174;-75
2021/05/31 20:00:10;;;;;;;1.97;1.43;;;;;;;16.78;52.97;99401.78;10497189;28;20186;-74
2021/05/31 20:05:28;;;;;;;1.80;1.60;;;;;;;16.37;54.54;99408.31;10496761;28;20171;-74
2021/05/31 20:10:47;;;;;;;1.73;1.43;;;;;;;16.10;55.60;99402.09;10498035;28;20626;-75
2021/05/31 20:16:06;;;;;;;2.20;2.00;;;;;;;15.85;56.98;99403.81;10497702;28;20206;-74
2021/05/31 20:21:25;;;;;;;2.23;1.90;;;;;;;15.69;59.44;99393.41;10496524;28;20183;-75
2021/05/31 20:26:45;;;;;;;2.40;2.20;;;;;;;15.60;59.24;99398.75;10497394;28;20174;-76
2021/05/31 20:32:05;;;;;;;3.37;2.80;;;;;;;15.30;60.36;99396.13;10497212;28;20218;-75
2021/05/31 20:37:24;;;;;;;2.30;2.10;;;;;;;15.20;60.64;99390.75;10496172;28;20609;-77
2021/05/31 20:42:43;;;;;;;2.03;1.30;;;;;;;15.17;60.63;99389.63;10496156;28;20183;-73
2021/05/31 20:48:04;;;;;;;2.50;1.90;;;;;;;15.10;61.63;99394.47;10497081;28;20170;-75
2021/05/31 20:53:23;;;;;;;2.07;1.80;;;;;;;14.86;64.29;99398.44;10496625;28;20230;-75
2021/05/31 20:58:43;;;;;;;3.23;1.53;;;;;;;14.64;66.38;99396.41;10504323;28;20182;-73
2021/05/31 21:04:03;;;;;;;2.00;1.90;;;;;;;14.39;66.43;99396.00;10504947;28;20182;-74
2021/05/31 21:09:25;;;;;;;3.73;2.40;;;;;;;14.29;68.16;99390.59;10503588;28;20261;-75
2021/05/31 21:14:46;;;;;;;4.30;2.93;;;;;;;14.04;67.64;99396.44;10502949;28;20573;-76
2021/05/31 21:20:07;;;;;;;1.77;1.67;;;;;;;13.98;69.78;99402.84;10502991;28;20187;-73
2021/05/31 21:25:27;;;;;;;2.10;1.90;;;;;;;13.71;69.84;99415.78;10504106;28;20174;-73
2021/05/31 21:30:46;;;;;;;2.50;2.30;;;;;;;13.46;71.58;99425.56;10503561;28;20621;-73
2021/05/31 21:36:05;;;;;;;2.33;1.80;;;;;;;13.20;72.54;99428.94;10502436;28;20190;-76
2021/05/31 21:41:24;;;;;;;6.33;3.83;;;;;;;13.17;71.99;99422.28;10503483;28;20178;-74
2021/05/31 21:46:43;;;;;;;3.60;2.73;;;;;;;13.19;71.52;99430.13;10502260;28;20618;-76
2021/05/31 21:52:04;;;;;;;2.10;1.87;;;;;;;13.17;71.44;99435.28;10500617;28;20202;-76
2021/05/31 21:57:22;;;;;;;2.27;1.70;;;;;;;13.09;71.71;99434.56;10503090;28;20179;-76
2021/05/31 22:02:41;;;;;;;2.70;2.07;;;;;;;12.95;72.21;99439.41;10502755;28;20579;-75
2021/05/31 22:08:01;;;;;;;1.50;1.40;;;;;;;12.89;72.75;99439.06;10499919;28;20637;-74
2021/05/31 22:13:30;;;;;;;4.40;2.70;;;;;;;12.89;71.99;99438.28;10502044;28;20202;-74
2021/05/31 22:18:49;;;;;;;2.80;1.90;;;;;;;12.88;72.67;99436.72;10502269;28;20187;-74
2021/05/31 22:24:08;;;;;;;2.20;2.00;;;;;;;12.78;75.59;99440.28;10499562;28;20535;-74
2021/05/31 22:35:08;;;;;;;2.30;1.70;;;;;;;12.36;79.25;99446.06;10499588;28;20226;-74
2021/05/31 22:40:40;;;;;;;2.27;1.70;;;;;;;12.20;80.72;99442.22;10501361;28;20191;-74
2021/05/31 22:53:42;;;;;;;2.33;2.07;;;;;;;12.12;82.49;99440.69;10501019;28;20254;-74
2021/05/31 23:13:16;;;;;;;2.70;2.30;;;;;;;11.71;84.70;99433.34;10499271;28;20198;-76
2021/05/31 23:18:35;;;;;;;3.60;2.43;;;;;;;11.54;86.13;99431.44;10498980;28;20166;-74
2021/05/31 23:23:54;;;;;;;2.07;1.90;;;;;;;11.40;88.63;99431.41;10498259;28;20175;-75
2021/05/31 23:29:14;;;;;;;2.20;1.67;;;;;;;11.15;89.34;99419.63;10499363;28;20519;-73
2021/05/31 23:34:33;;;;;;;1.53;1.43;;;;;;;11.05;93.01;99420.44;10498435;28;20604;-76
2021/05/31 23:39:54;;;;;;;2.70;2.47;;;;;;;10.98;93.29;99414.94;10496700;28;20250;-74
2021/05/31 23:45:14;;;;;;;2.17;1.80;;;;;;;10.91;91.85;99425.94;10498786;28;20182;-74
2021/05/31 23:50:33;;;;;;;2.30;1.90;;;;;;;10.99;92.30;99419.25;10496275;28;20211;-75
2021/05/31 23:55:53;;;;;;;2.53;1.60;;;;;;;10.94;94.78;99416.13;10497957;28;20206;-73
